Time;durP1;ratioP1;P1;durP2;ratioP2;P2;SDS_P1;SDS_P2;PMS_P1;PMS_P2;Temp;Humidity;BMP_temperature;BMP_pressure;BME280_temperature;BME280_humidity;BME280_pressure;Samples;Min_cycle;Max_cycle;Signal;HPM_P1;HPM_P2
2021/05/15 00:00:52;;;;;;;17.35;14.13;;;;;;;10.81;76.54;100214.41;1684168;85;21094;-83
2021/05/15 00:03:18;;;;;;;16.55;13.90;;;;;;;10.82;76.66;100209.62;1655014;85;21136;-82
2021/05/15 00:05:45;;;;;;;18.45;13.55;;;;;;;10.84;76.75;100210.52;1684180;85;21698;-82
2021/05/15 00:08:19;;;;;;;22.42;13.28;;;;;;;10.86;76.79;100201.77;1651769;85;21250;-83
2021/05/15 00:10:53;;;;;;;16.93;13.68;;;;;;;10.85;76.82;100207.92;1684096;85;21059;-82
2021/05/15 00:13:33;;;;;;;16.70;13.93;;;;;;;10.86;76.84;100204.84;1683897;85;21752;-83
2021/05/15 00:16:07;;;;;;;15.10;12.93;;;;;;;10.85;76.89;100204.41;1683985;85;21106;-83
2021/05/15 00:18:44;;;;;;;17.00;13.95;;;;;;;10.84;76.94;100202.18;1684040;84;21825;-83
2021/05/15 00:21:16;;;;;;;14.33;12.85;;;;;;;10.87;77.06;100202.24;1683622;85;21738;-84
2021/05/15 00:23:46;;;;;;;15.72;13.62;;;;;;;10.91;77.13;100211.52;1683946;85;21043;-83
2021/05/15 00:26:19;;;;;;;18.00;14.23;;;;;;;10.92;77.12;100206.69;1684096;85;21078;-84
2021/05/15 00:28:48;;;;;;;17.07;14.00;;;;;;;10.92;77.07;100206.24;1684111;85;21094;-84
2021/05/15 00:31:15;;;;;;;16.20;14.18;;;;;;;10.92;77.17;100203.61;1683971;85;21698;-83
2021/05/15 00:33:42;;;;;;;16.62;14.85;;;;;;;10.94;77.25;100209.78;1684263;85;21058;-83
2021/05/15 00:36:10;;;;;;;16.67;14.63;;;;;;;10.97;77.27;100215.11;1683959;85;21110;-83
2021/05/15 00:38:39;;;;;;;17.67;14.47;;;;;;;10.97;77.41;100215.11;1683995;85;21267;-83
2021/05/15 00:41:05;;;;;;;20.02;14.63;;;;;;;11.01;77.61;100222.19;1683546;85;21098;-83
2021/05/15 00:43:32;;;;;;;17.55;14.95;;;;;;;11.07;77.67;100225.34;1683973;85;21859;-84
2021/05/15 00:45:59;;;;;;;15.88;13.65;;;;;;;11.14;77.78;100222.38;1684098;85;21142;-84
2021/05/15 00:48:26;;;;;;;15.05;13.30;;;;;;;11.19;77.71;100222.89;1684093;85;21107;-83
2021/05/15 00:50:53;;;;;;;19.27;13.85;;;;;;;11.21;77.69;100213.26;1684173;85;21254;-82
2021/05/15 00:53:19;;;;;;;17.02;13.95;;;;;;;11.26;77.67;100218.58;1684158;85;21633;-83
2021/05/15 00:55:47;;;;;;;17.37;13.20;;;;;;;11.31;77.65;100216.02;1683940;85;21674;-84
2021/05/15 00:58:14;;;;;;;16.85;14.25;;;;;;;11.35;77.65;100212.55;1683845;85;21123;-84
2021/05/15 01:00:40;;;;;;;19.35;15.35;;;;;;;11.38;77.61;100217.88;1683619;85;21059;-83
2021/05/15 01:03:07;;;;;;;20.17;15.78;;;;;;;11.40;77.56;100218.78;1683573;85;21111;-83
2021/05/15 01:05:37;;;;;;;18.95;16.48;;;;;;;11.40;77.47;100222.29;1654680;85;21114;-82
2021/05/15 01:08:05;;;;;;;21.10;18.07;;;;;;;11.38;77.46;100220.52;1655283;85;21741;-82
2021/05/15 01:10:31;;;;;;;22.70;18.65;;;;;;;11.39;77.61;100214.36;1683995;85;21178;-83
2021/05/15 01:12:59;;;;;;;24.02;18.50;;;;;;;11.38;77.51;100224.02;1684274;85;21115;-83
2021/05/15 01:15:30;;;;;;;26.65;19.48;;;;;;;11.37;77.52;100220.92;1684142;85;21146;-83
2021/05/15 01:17:58;;;;;;;23.00;18.60;;;;;;;11.35;77.43;100223.09;1683686;85;21117;-84
2021/05/15 01:20:27;;;;;;;22.07;19.57;;;;;;;11.31;77.41;100216.89;1684377;85;21773;-84
2021/05/15 01:22:55;;;;;;;23.15;18.17;;;;;;;11.29;77.53;100217.31;1684745;84;21043;-83
2021/05/15 01:25:22;;;;;;;23.45;19.40;;;;;;;11.28;77.58;100220.38;1684195;85;21090;-84
2021/05/15 01:27:49;;;;;;;24.72;19.30;;;;;;;11.27;77.64;100222.99;1684346;85;21138;-84
2021/05/15 01:30:16;;;;;;;24.05;18.73;;;;;;;11.27;77.72;100220.36;1684380;85;21058;-84
2021/05/15 01:32:44;;;;;;;20.90;18.37;;;;;;;11.27;77.83;100217.28;1684392;85;21723;-85
2021/05/15 01:35:12;;;;;;;20.08;17.42;;;;;;;11.33;78.01;100223.51;1684533;85;21244;-85
2021/05/15 01:37:39;;;;;;;21.48;17.85;;;;;;;11.38;78.09;100221.39;1684273;85;21027;-85
2021/05/15 01:40:07;;;;;;;23.00;17.73;;;;;;;11.43;78.11;100221.44;1684190;85;21104;-83
2021/05/15 01:42:34;;;;;;;19.92;16.30;;;;;;;11.45;77.96;100221.05;1684281;85;21075;-83
2021/05/15 01:45:01;;;;;;;18.70;15.35;;;;;;;11.47;78.01;100220.63;1684375;85;21723;-83
2021/05/15 01:47:28;;;;;;;16.02;14.33;;;;;;;11.51;78.00;100226.83;1684116;85;21601;-84
2021/05/15 01:49:55;;;;;;;17.23;14.07;;;;;;;11.51;77.91;100229.47;1684277;85;21075;-85
2021/05/15 01:52:22;;;;;;;16.35;13.40;;;;;;;11.56;77.91;100229.06;1684533;85;21684;-84
2021/05/15 01:54:49;;;;;;;16.95;12.93;;;;;;;11.57;77.73;100226.90;1684384;85;21103;-83
2021/05/15 01:57:15;;;;;;;16.17;13.50;;;;;;;11.57;77.60;100231.73;1684129;85;21798;-83
2021/05/15 01:59:42;;;;;;;15.58;13.60;;;;;;;11.59;77.56;100233.07;1684094;85;21106;-83
2021/05/15 02:02:09;;;;;;;18.55;13.50;;;;;;;11.62;77.58;100231.80;1684039;85;21114;-83
2021/05/15 02:04:36;;;;;;;19.35;13.60;;;;;;;11.65;77.51;100231.38;1684197;85;21193;-83
2021/05/15 02:07:02;;;;;;;17.92;13.90;;;;;;;11.70;77.49;100241.13;1684101;85;21151;-83
2021/05/15 02:09:29;;;;;;;18.65;14.53;;;;;;;11.72;77.38;100234.98;1684181;85;21776;-83
2021/05/15 02:11:56;;;;;;;18.73;14.00;;;;;;;11.72;77.15;100234.98;1684270;85;21162;-83
2021/05/15 02:14:23;;;;;;;20.30;14.10;;;;;;;11.72;77.10;100236.31;1684169;85;21122;-83
2021/05/15 02:16:50;;;;;;;17.65;13.93;;;;;;;11.73;77.17;100239.41;1684232;85;21461;-83
2021/05/15 02:19:16;;;;;;;15.83;13.50;;;;;;;11.76;77.16;100239.42;1691732;84;21102;-84
2021/05/15 02:21:43;;;;;;;16.25;13.35;;;;;;;11.79;77.14;100240.80;1692140;84;21784;-83
2021/05/15 02:24:10;;;;;;;15.43;13.03;;;;;;;11.80;77.16;100236.39;1691996;84;21090;-84
2021/05/15 02:26:37;;;;;;;18.62;13.62;;;;;;;11.81;77.12;100236.42;1691930;84;21583;-82
2021/05/15 02:29:07;;;;;;;15.75;13.22;;;;;;;11.84;77.13;100236.87;1691752;84;21564;-82
2021/05/15 02:31:34;;;;;;;15.68;13.62;;;;;;;11.85;77.04;100222.39;1691717;84;21137;-82
2021/05/15 02:34:00;;;;;;;14.68;12.93;;;;;;;11.88;77.10;100229.48;1691800;84;21736;-82
2021/05/15 02:36:27;;;;;;;15.83;13.30;;;;;;;11.91;77.09;100225.56;1691659;84;21071;-82
2021/05/15 02:38:55;;;;;;;15.18;12.82;;;;;;;11.92;77.04;100218.53;1691795;84;21121;-83
2021/05/15 02:41:21;;;;;;;18.82;13.38;;;;;;;11.93;77.00;100225.59;1691875;84;21074;-83
2021/05/15 02:43:48;;;;;;;16.05;13.35;;;;;;;11.94;76.94;100219.47;1691999;84;21098;-83
2021/05/15 02:46:20;;;;;;;17.77;13.38;;;;;;;11.96;76.95;100221.69;1691819;84;22371;-83
2021/05/15 02:48:48;;;;;;;16.97;14.70;;;;;;;11.97;77.03;100223.43;1692048;84;21101;-81
2021/05/15 02:51:14;;;;;;;17.82;14.20;;;;;;;11.89;77.03;100197.39;1691974;84;21765;-81
2021/05/15 02:53:41;;;;;;;20.12;15.15;;;;;;;12.02;77.04;100219.09;1692103;84;21610;-82
2021/05/15 02:56:08;;;;;;;17.35;13.32;;;;;;;12.05;77.06;100221.34;1691898;84;21070;-82
2021/05/15 02:58:34;;;;;;;16.07;13.20;;;;;;;12.06;76.99;100221.77;1691916;84;22304;-82
2021/05/15 03:01:01;;;;;;;16.37;13.55;;;;;;;12.08;77.03;100223.11;1691874;84;21137;-81
2021/05/15 03:03:28;;;;;;;16.05;14.35;;;;;;;12.10;77.02;100218.73;1692211;84;21038;-81
2021/05/15 03:05:59;;;;;;;17.40;13.58;;;;;;;12.12;77.04;100222.71;1691985;84;21659;-81
2021/05/15 03:08:34;;;;;;;16.95;13.65;;;;;;;12.13;77.03;100224.05;1691977;84;21062;-82
2021/05/15 03:11:07;;;;;;;17.77;13.32;;;;;;;12.15;77.09;100231.55;1691734;84;21359;-83
2021/05/15 03:13:43;;;;;;;15.45;13.80;;;;;;;12.16;77.04;100229.38;1691947;84;21114;-83
2021/05/15 03:16:21;;;;;;;17.45;13.05;;;;;;;12.16;77.07;100228.05;1691177;84;21635;-83
2021/05/15 03:18:57;;;;;;;19.37;13.65;;;;;;;12.22;77.05;100229.87;1686898;84;21773;-83
2021/05/15 03:21:27;;;;;;;17.07;14.05;;;;;;;12.22;77.04;100233.83;1684295;85;21070;-83
2021/05/15 03:24:01;;;;;;;17.17;14.53;;;;;;;12.25;77.13;100233.83;1684517;85;21744;-83
2021/05/15 03:26:31;;;;;;;17.60;14.13;;;;;;;12.29;77.08;100238.27;1684310;85;21580;-83
2021/05/15 03:29:03;;;;;;;17.48;13.13;;;;;;;12.30;77.08;100239.17;1684425;85;21095;-83
2021/05/15 03:31:31;;;;;;;16.27;13.85;;;;;;;12.32;77.07;100242.27;1684482;85;21133;-87
2021/05/15 03:34:03;;;;;;;17.85;13.68;;;;;;;12.32;77.09;100244.91;1684729;85;21067;-88
2021/05/15 03:36:30;;;;;;;15.90;12.20;;;;;;;12.33;77.06;100240.50;1684662;85;21736;-85
2021/05/15 03:38:57;;;;;;;14.05;11.97;;;;;;;12.35;77.06;100246.27;1684694;85;21132;-85
2021/05/15 03:41:23;;;;;;;14.05;12.55;;;;;;;12.36;77.08;100249.78;1684634;85;21066;-90
2021/05/15 03:43:52;;;;;;;14.05;12.55;;;;;;;12.34;77.13;100252.40;1684631;85;21130;-89
2021/05/15 03:46:19;;;;;;;15.45;13.22;;;;;;;12.35;77.11;100250.64;1684635;85;21118;-89
2021/05/15 03:48:45;;;;;;;14.28;12.53;;;;;;;12.35;77.15;100250.64;1684867;85;22366;-89
2021/05/15 03:51:18;;;;;;;14.87;12.53;;;;;;;12.37;77.25;100248.48;1684478;85;21051;-89
2021/05/15 03:53:47;;;;;;;17.65;13.18;;;;;;;12.42;77.22;100244.11;1684662;85;21063;-87
2021/05/15 03:56:13;;;;;;;14.98;13.10;;;;;;;12.43;77.15;100246.34;1684692;85;21596;-85
2021/05/15 03:58:40;;;;;;;15.30;12.47;;;;;;;12.44;77.15;100251.64;1684604;85;21103;-89
2021/05/15 04:01:07;;;;;;;15.90;12.93;;;;;;;12.44;77.11;100246.36;1684471;85;21711;-89
2021/05/15 04:03:35;;;;;;;15.30;13.38;;;;;;;12.47;77.17;100248.13;1684229;85;21067;-89
2021/05/15 04:06:27;;;;;;;15.13;13.03;;;;;;;12.48;77.20;100251.23;1684611;85;21615;-89
2021/05/15 04:08:43;;;;;;;13.72;12.33;;;;;;;12.55;77.29;100253.48;1666332;85;21070;-86
2021/05/15 04:11:10;;;;;;;13.65;11.55;;;;;;;12.54;77.17;100251.28;1684574;85;21636;-84
2021/05/15 04:13:45;;;;;;;14.20;12.40;;;;;;;12.53;77.16;100252.58;1655354;85;21728;-85
2021/05/15 04:16:17;;;;;;;13.00;11.48;;;;;;;12.55;77.22;100253.03;1683645;85;21130;-84
2021/05/15 04:18:39;;;;;;;14.73;13.20;;;;;;;12.55;77.14;100246.42;1681710;85;21074;-84
2021/05/15 04:21:06;;;;;;;14.95;12.93;;;;;;;12.54;77.15;100247.77;1703966;83;21094;-83
2021/05/15 04:23:33;;;;;;;15.80;13.08;;;;;;;12.57;77.24;100253.92;1709231;83;21067;-83
2021/05/15 04:26:00;;;;;;;15.48;13.85;;;;;;;12.61;77.30;100254.84;1709327;83;21734;-82
2021/05/15 04:28:27;;;;;;;15.35;13.32;;;;;;;12.62;77.16;100261.45;1709054;83;21154;-82
2021/05/15 04:30:54;;;;;;;14.75;13.03;;;;;;;12.62;77.18;100265.42;1709283;83;21137;-83
2021/05/15 04:33:23;;;;;;;14.50;13.05;;;;;;;12.62;77.18;100258.81;1709261;83;21079;-83
2021/05/15 04:35:51;;;;;;;13.48;11.88;;;;;;;12.64;77.17;100257.52;1708865;83;21090;-84
2021/05/15 04:38:18;;;;;;;16.57;13.80;;;;;;;12.66;77.27;100254.45;1708551;83;21732;-87
2021/05/15 04:40:45;;;;;;;14.47;13.00;;;;;;;12.73;77.30;100258.92;1709364;83;21039;-89
2021/05/15 04:43:13;;;;;;;17.62;12.93;;;;;;;12.79;77.33;100254.13;1709608;83;21043;-91
2021/05/15 04:45:41;;;;;;;15.45;13.53;;;;;;;12.90;77.46;100255.53;1689139;83;21613;-84
2021/05/15 04:48:08;;;;;;;16.02;12.68;;;;;;;13.02;77.44;100256.92;1690001;84;21089;-84
2021/05/15 04:50:35;;;;;;;20.43;15.00;;;;;;;13.10;77.24;100259.62;1658801;85;21706;-86
2021/05/15 04:53:02;;;;;;;17.80;14.65;;;;;;;13.17;77.13;100253.51;1658880;86;21102;-85
2021/05/15 04:55:29;;;;;;;16.27;13.83;;;;;;;13.22;77.00;100262.36;1658675;86;21181;-82
2021/05/15 04:57:57;;;;;;;14.73;12.85;;;;;;;13.27;76.95;100262.37;1658572;86;21122;-82
2021/05/15 05:00:24;;;;;;;16.90;13.65;;;;;;;13.31;76.92;100260.25;1658295;85;21070;-82
2021/05/15 05:02:51;;;;;;;17.45;13.93;;;;;;;13.38;77.10;100264.26;1657375;85;21742;-83
2021/05/15 05:05:18;;;;;;;15.70;13.72;;;;;;;13.48;76.97;100261.67;1657024;86;21104;-84
2021/05/15 05:07:44;;;;;;;31.70;18.45;;;;;;;13.52;76.59;100252.88;1629304;86;21070;-82
2021/05/15 05:10:12;;;;;;;18.80;13.13;;;;;;;13.53;76.55;100260.81;1658499;86;21104;-82
2021/05/15 05:12:38;;;;;;;14.98;12.98;;;;;;;13.57;76.57;100263.92;1658464;86;21104;-82
2021/05/15 05:15:06;;;;;;;14.65;12.88;;;;;;;13.61;76.50;100264.37;1663496;86;21720;-82
2021/05/15 05:17:32;;;;;;;14.40;12.85;;;;;;;13.68;76.44;100266.59;1647120;85;21591;-81
2021/05/15 05:19:59;;;;;;;14.33;12.82;;;;;;;13.71;76.30;100269.70;1649739;85;21698;-81
2021/05/15 05:22:26;;;;;;;16.80;15.05;;;;;;;13.73;76.23;100267.50;1651686;86;21125;-80
2021/05/15 05:24:53;;;;;;;24.40;18.25;;;;;;;13.78;76.15;100271.50;1651677;86;21094;-82
2021/05/15 05:27:22;;;;;;;40.28;24.87;;;;;;;13.80;75.98;100273.72;1651724;86;21093;-82
2021/05/15 05:29:48;;;;;;;49.83;27.98;;;;;;;13.83;76.00;100274.16;1651677;86;21129;-82
2021/05/15 05:32:15;;;;;;;23.02;17.80;;;;;;;13.89;75.99;100284.75;1651880;86;21199;-82
2021/05/15 05:34:42;;;;;;;22.25;18.52;;;;;;;13.96;75.95;100281.26;1652045;86;21077;-86
2021/05/15 05:37:09;;;;;;;21.33;19.12;;;;;;;14.03;75.89;100284.37;1652172;86;21149;-84
2021/05/15 05:39:37;;;;;;;19.45;17.05;;;;;;;14.04;75.56;100283.51;1651996;86;21736;-85
2021/05/15 05:42:04;;;;;;;17.15;14.45;;;;;;;14.04;75.54;100287.48;1652040;86;21154;-85
2021/05/15 05:44:40;;;;;;;16.62;14.90;;;;;;;14.06;75.49;100290.11;1652066;86;21085;-83
2021/05/15 05:47:07;;;;;;;39.65;24.80;;;;;;;14.08;75.39;100291.02;1652172;86;21078;-84
2021/05/15 05:49:34;;;;;;;17.62;14.20;;;;;;;14.10;75.34;100294.11;1653080;86;21323;-83
2021/05/15 05:52:01;;;;;;;22.48;17.55;;;;;;;14.12;75.22;100294.99;1665361;85;21427;-86
2021/05/15 05:54:27;;;;;;;21.75;15.83;;;;;;;14.16;75.04;100295.89;1640549;86;21102;-85
2021/05/15 05:56:54;;;;;;;18.27;15.60;;;;;;;14.15;74.79;100301.63;1661919;86;21091;-83
2021/05/15 05:59:21;;;;;;;18.23;15.93;;;;;;;14.16;74.71;100301.19;1655156;85;21072;-83
2021/05/15 06:01:47;;;;;;;16.67;14.53;;;;;;;14.13;74.62;100302.06;1663900;85;21047;-86
2021/05/15 06:04:14;;;;;;;16.48;13.45;;;;;;;14.12;74.63;100300.73;1666196;86;21797;-86
2021/05/15 06:06:40;;;;;;;24.52;19.15;;;;;;;14.13;74.72;100303.81;1666401;85;21069;-85
2021/05/15 06:09:07;;;;;;;16.48;14.50;;;;;;;14.10;74.66;100308.66;1666462;86;21613;-88
2021/05/15 06:11:34;;;;;;;14.68;12.80;;;;;;;14.07;74.54;100309.09;1666396;86;21061;-83
2021/05/15 06:14:01;;;;;;;13.72;12.33;;;;;;;14.04;74.56;100309.06;1666388;86;21089;-85
2021/05/15 06:16:27;;;;;;;16.48;12.55;;;;;;;13.98;74.34;100307.28;1666300;85;21720;-83
2021/05/15 06:18:54;;;;;;;13.75;11.53;;;;;;;13.97;74.52;100313.47;1666219;86;21056;-83
2021/05/15 06:21:21;;;;;;;14.35;11.55;;;;;;;13.97;74.41;100314.79;1655619;86;21076;-85
2021/05/15 06:23:48;;;;;;;14.47;13.08;;;;;;;13.94;74.52;100314.32;1650540;86;21371;-85
2021/05/15 06:26:15;;;;;;;16.90;13.40;;;;;;;13.96;74.69;100319.21;1634495;87;21578;-84
2021/05/15 06:28:41;;;;;;;15.65;13.58;;;;;;;14.01;74.79;100319.22;1634194;86;21712;-83
2021/05/15 06:31:08;;;;;;;15.35;12.98;;;;;;;14.05;74.78;100319.66;1633847;86;21105;-84
2021/05/15 06:33:35;;;;;;;14.78;11.80;;;;;;;14.07;74.71;100328.48;1634073;87;21069;-84
2021/05/15 06:36:02;;;;;;;13.25;11.90;;;;;;;14.09;74.85;100320.56;1634253;87;21136;-84
2021/05/15 06:38:29;;;;;;;13.05;11.70;;;;;;;14.12;74.79;100329.84;1634161;87;21128;-83
2021/05/15 06:40:56;;;;;;;13.90;12.43;;;;;;;14.12;74.79;100330.72;1633564;86;21727;-93
2021/05/15 06:43:23;;;;;;;13.72;12.10;;;;;;;14.16;74.78;100332.50;1632856;86;21637;-85
2021/05/15 06:45:49;;;;;;;16.32;12.20;;;;;;;14.18;74.65;100336.03;1632861;86;21069;-84
2021/05/15 06:48:16;;;;;;;14.43;12.98;;;;;;;14.21;74.67;100335.18;1632802;86;21081;-85
2021/05/15 06:50:43;;;;;;;14.73;13.30;;;;;;;14.21;74.58;100331.20;1632797;87;21171;-83
2021/05/15 06:53:10;;;;;;;13.48;12.13;;;;;;;14.25;74.50;100334.75;1632786;87;22601;-83
2021/05/15 06:55:36;;;;;;;13.75;12.28;;;;;;;14.29;74.35;100336.08;1632627;86;21247;-86
2021/05/15 06:58:05;;;;;;;18.55;12.37;;;;;;;14.32;74.27;100337.84;1632884;86;21713;-87
2021/05/15 07:00:31;;;;;;;16.02;12.85;;;;;;;14.36;74.26;100343.61;1632088;87;21103;-86
2021/05/15 07:02:58;;;;;;;13.60;12.20;;;;;;;14.38;74.22;100344.05;1633558;86;21112;-83
2021/05/15 07:05:25;;;;;;;18.12;13.38;;;;;;;14.43;74.31;100337.88;1632876;86;21719;-85
2021/05/15 07:07:51;;;;;;;19.02;13.22;;;;;;;14.50;74.21;100331.72;1634058;87;21109;-86
2021/05/15 07:10:27;;;;;;;17.73;13.30;;;;;;;14.53;74.08;100333.94;1632163;87;21116;-86
2021/05/15 07:12:54;;;;;;;14.73;12.80;;;;;;;14.63;73.97;100337.97;1632742;86;21140;-85
2021/05/15 07:15:21;;;;;;;15.30;13.48;;;;;;;14.68;73.68;100341.06;1633222;86;21725;-83
2021/05/15 07:17:48;;;;;;;20.02;14.47;;;;;;;14.71;73.73;100344.14;1634104;86;21735;-82
2021/05/15 07:20:16;;;;;;;18.45;14.95;;;;;;;14.69;73.54;100346.78;1634089;86;21131;-82
2021/05/15 07:22:44;;;;;;;20.55;14.50;;;;;;;14.66;73.42;100345.89;1658915;86;21063;-83
2021/05/15 07:25:11;;;;;;;17.50;15.48;;;;;;;14.67;73.50;100349.88;1658656;86;21612;-83
2021/05/15 07:27:39;;;;;;;22.67;15.20;;;;;;;14.67;73.41;100356.95;1630037;88;21124;-83
2021/05/15 07:30:06;;;;;;;20.55;15.40;;;;;;;14.63;73.35;100357.83;1658068;86;21757;-83
2021/05/15 07:32:33;;;;;;;23.77;18.42;;;;;;;14.60;73.38;100351.19;1658273;86;21140;-83
2021/05/15 07:35:00;;;;;;;131.15;57.13;;;;;;;14.60;73.41;100357.36;1663298;86;21001;-83
2021/05/15 07:37:27;;;;;;;63.58;37.75;;;;;;;14.61;73.35;100365.77;1658260;86;21098;-82
2021/05/15 07:39:53;;;;;;;26.42;20.40;;;;;;;14.65;73.49;100366.21;1658576;86;21050;-83
2021/05/15 07:42:20;;;;;;;33.50;27.85;;;;;;;14.69;73.41;100369.75;1658808;86;21721;-83
2021/05/15 07:44:47;;;;;;;30.25;23.38;;;;;;;14.67;73.26;100372.39;1658738;85;21015;-83
2021/05/15 07:47:14;;;;;;;31.02;24.63;;;;;;;14.66;73.39;100374.62;1658711;86;21647;-83
2021/05/15 07:49:40;;;;;;;27.55;23.40;;;;;;;14.63;73.26;100377.70;1658754;86;21710;-83
2021/05/15 07:52:10;;;;;;;25.10;20.15;;;;;;;14.58;73.26;100373.69;1658821;86;21097;-83
2021/05/15 07:54:37;;;;;;;34.23;23.67;;;;;;;14.55;73.31;100383.82;1659025;86;21764;-83
2021/05/15 07:57:04;;;;;;;27.10;20.82;;;;;;;14.52;73.21;100384.25;1658742;86;21324;-83
2021/05/15 07:59:31;;;;;;;29.77;23.05;;;;;;;14.52;73.42;100381.15;1659013;86;21602;-83
2021/05/15 08:01:58;;;;;;;34.48;24.32;;;;;;;14.52;73.44;100383.80;1658738;85;21077;-83
2021/05/15 08:04:31;;;;;;;40.85;30.27;;;;;;;14.51;73.42;100383.37;1658568;86;21081;-83
2021/05/15 08:06:58;;;;;;;44.90;33.63;;;;;;;14.54;73.51;100379.39;1659004;85;23825;-84
2021/05/15 08:09:25;;;;;;;79.45;55.28;;;;;;;14.58;73.43;100380.31;1658656;85;21041;-84
2021/05/15 08:11:51;;;;;;;51.83;40.38;;;;;;;14.61;73.64;100382.98;1658823;86;21097;-84
2021/05/15 08:14:18;;;;;;;38.85;32.42;;;;;;;14.66;73.61;100382.56;1658904;86;21062;-84
2021/05/15 08:16:45;;;;;;;41.30;30.62;;;;;;;14.65;73.55;100388.73;1658934;86;21030;-83
2021/05/15 08:19:12;;;;;;;67.45;46.60;;;;;;;14.64;73.66;100391.37;1658684;86;21739;-84
2021/05/15 08:21:43;;;;;;;51.35;41.65;;;;;;;14.64;73.64;100396.66;1654621;86;21656;-84
2021/05/15 08:24:11;;;;;;;55.17;40.23;;;;;;;14.63;73.53;100398.44;1650085;86;21649;-83
2021/05/15 08:26:39;;;;;;;54.75;41.37;;;;;;;14.65;73.59;100398.45;1650508;86;21114;-83
2021/05/15 08:29:09;;;;;;;46.05;34.65;;;;;;;14.64;73.65;100404.20;1634091;87;21089;-84
2021/05/15 08:31:35;;;;;;;34.63;25.55;;;;;;;14.70;73.67;100409.95;1634119;86;21745;-84
2021/05/15 08:34:01;;;;;;;30.90;23.83;;;;;;;14.78;73.88;100410.84;1634082;86;21605;-83
2021/05/15 08:36:28;;;;;;;22.35;19.20;;;;;;;14.83;73.75;100415.72;1634039;86;21093;-84
2021/05/15 08:38:56;;;;;;;13.70;10.08;;;;;;;14.85;73.84;100412.63;1634158;87;21128;-83
2021/05/15 08:41:23;;;;;;;15.03;10.55;;;;;;;14.89;73.49;100411.75;1634277;86;21108;-83
2021/05/15 08:43:49;;;;;;;12.03;8.73;;;;;;;14.91;73.25;100423.69;1634122;86;22279;-84
2021/05/15 08:46:16;;;;;;;10.40;7.78;;;;;;;14.93;73.05;100420.14;1633940;87;21069;-83
2021/05/15 08:48:43;;;;;;;8.33;6.90;;;;;;;14.95;73.09;100417.50;1633857;87;21128;-83
2021/05/15 08:51:11;;;;;;;11.50;7.45;;;;;;;14.96;72.86;100415.31;1634083;86;21108;-84
2021/05/15 08:53:40;;;;;;;11.63;8.28;;;;;;;14.99;73.03;100420.59;1633907;87;21118;-84
2021/05/15 08:56:10;;;;;;;8.83;7.92;;;;;;;15.04;72.98;100428.57;1634116;87;22221;-84
2021/05/15 08:58:37;;;;;;;8.80;6.42;;;;;;;15.03;72.98;100423.69;1633847;87;21140;-83
2021/05/15 09:01:06;;;;;;;6.42;5.65;;;;;;;15.05;72.83;100429.87;1634014;87;21122;-84
2021/05/15 09:03:33;;;;;;;7.08;5.85;;;;;;;15.06;72.67;100429.45;1633895;87;21106;-83
2021/05/15 09:06:00;;;;;;;9.08;6.42;;;;;;;15.09;72.80;100435.64;1633981;87;21103;-83
2021/05/15 09:08:27;;;;;;;9.70;6.67;;;;;;;15.14;72.80;100437.84;1633951;87;21734;-83
2021/05/15 09:10:53;;;;;;;14.65;8.48;;;;;;;15.18;72.61;100439.18;1633683;87;21645;-83
2021/05/15 09:13:26;;;;;;;12.40;8.73;;;;;;;15.24;72.53;100437.44;1633781;87;21102;-83
2021/05/15 09:15:59;;;;;;;13.58;8.98;;;;;;;15.24;72.42;100441.41;1633945;87;21091;-83
2021/05/15 09:18:28;;;;;;;11.60;8.95;;;;;;;15.22;72.31;100439.20;1633742;86;21087;-83
2021/05/15 09:20:57;;;;;;;55.55;40.10;;;;;;;15.22;72.46;100439.62;1633914;86;21950;-83
2021/05/15 09:23:27;;;;;;;20.57;16.05;;;;;;;15.26;72.44;100438.73;1638406;86;21140;-83
2021/05/15 09:26:03;;;;;;;14.87;11.38;;;;;;;15.31;72.45;100438.30;1664152;85;21060;-83
2021/05/15 09:28:38;;;;;;;8.75;7.80;;;;;;;15.36;72.51;100436.09;1663952;86;21088;-83
2021/05/15 09:31:27;;;;;;;11.33;7.20;;;;;;;15.48;72.45;100442.28;1663970;85;21165;-83
2021/05/15 09:34:01;;;;;;;8.48;7.37;;;;;;;15.49;72.32;100438.31;1664075;85;21739;-84
2021/05/15 09:36:31;;;;;;;72.92;59.67;;;;;;;15.49;72.14;100445.39;1664010;86;21128;-84
2021/05/15 09:39:08;;;;;;;25.10;22.60;;;;;;;15.42;72.08;100443.62;1661187;86;21084;-83
2021/05/15 09:41:44;;;;;;;9.63;7.85;;;;;;;15.37;72.26;100446.25;1664010;86;21096;-84
2021/05/15 09:44:14;;;;;;;8.13;7.28;;;;;;;15.38;72.05;100448.48;1662525;86;21072;-83
2021/05/15 09:46:43;;;;;;;8.88;6.33;;;;;;;15.34;72.04;100449.80;1665638;85;22498;-83
2021/05/15 09:49:10;;;;;;;6.90;6.30;;;;;;;15.30;72.12;100451.14;1645501;85;21404;-82
2021/05/15 09:51:38;;;;;;;6.72;5.90;;;;;;;15.26;72.31;100456.88;1649932;86;21072;-84
2021/05/15 09:54:40;;;;;;;6.85;5.42;;;;;;;15.24;72.40;100450.69;1649958;86;21108;-83
2021/05/15 09:57:10;;;;;;;6.58;5.33;;;;;;;15.26;72.27;100451.98;1642691;86;21068;-83
2021/05/15 09:59:43;;;;;;;6.85;5.60;;;;;;;15.32;72.52;100458.20;1647325;86;22270;-84
2021/05/15 10:02:14;;;;;;;7.35;5.15;;;;;;;15.33;72.33;100456.42;1623266;88;21166;-83
2021/05/15 10:04:45;;;;;;;10.35;6.83;;;;;;;15.32;72.21;100455.55;1624117;87;21035;-82
2021/05/15 10:07:21;;;;;;;10.55;5.50;;;;;;;15.29;72.02;100452.88;1623539;88;21066;-82
2021/05/15 10:09:48;;;;;;;22.25;14.85;;;;;;;15.30;72.09;100449.36;1623576;87;21110;-83
2021/05/15 10:12:22;;;;;;;8.18;5.85;;;;;;;15.43;72.32;100453.33;1623409;88;21164;-84
2021/05/15 10:14:50;;;;;;;10.70;7.75;;;;;;;15.55;71.92;100457.32;1636442;86;21075;-84
2021/05/15 10:17:16;;;;;;;13.43;8.55;;;;;;;15.68;71.88;100463.06;1623620;88;21086;-86
2021/05/15 10:19:43;;;;;;;9.68;5.97;;;;;;;15.75;71.68;100463.98;1623736;88;21063;-83
2021/05/15 10:22:10;;;;;;;7.30;5.08;;;;;;;15.81;71.50;100470.61;1612995;88;21667;-83
2021/05/15 10:24:37;;;;;;;8.33;7.35;;;;;;;15.81;70.99;100472.39;1615564;88;21835;-83
2021/05/15 10:27:07;;;;;;;2.30;2.10;;;;;;;15.83;70.99;100469.29;1587293;88;21308;-83
2021/05/15 10:29:53;;;;;;;3.95;3.62;;;;;;;15.89;70.68;100475.91;1613312;88;21622;-84
2021/05/15 10:32:34;;;;;;;4.78;3.37;;;;;;;16.01;70.83;100476.32;1595080;88;21132;-83
2021/05/15 10:35:07;;;;;;;4.35;3.80;;;;;;;16.13;70.80;100468.34;1595489;89;21304;-84
2021/05/15 10:37:38;;;;;;;7.15;5.70;;;;;;;16.13;70.62;100473.20;1606543;89;21754;-84
2021/05/15 10:40:19;;;;;;;4.97;2.80;;;;;;;16.11;70.53;100474.11;1585017;90;21102;-83
2021/05/15 10:42:47;;;;;;;7.60;6.12;;;;;;;16.05;70.47;100480.77;1585218;90;21627;-84
2021/05/15 10:45:14;;;;;;;4.37;1.80;;;;;;;15.94;70.08;100484.30;1582201;90;21189;-83
2021/05/15 10:47:43;;;;;;;3.52;1.42;;;;;;;15.92;70.17;100479.90;1584859;90;21153;-84
2021/05/15 10:50:21;;;;;;;1.75;1.30;;;;;;;15.98;70.10;100480.33;1584859;90;21709;-82
2021/05/15 10:52:51;;;;;;;2.08;1.70;;;;;;;16.09;70.13;100479.88;1584482;89;21599;-82
2021/05/15 10:55:33;;;;;;;2.65;1.30;;;;;;;16.38;70.35;100477.57;1584625;89;21160;-81
2021/05/15 10:58:14;;;;;;;1.32;0.90;;;;;;;16.71;70.15;100470.80;1602595;88;21143;-81
2021/05/15 11:00:40;;;;;;;3.12;1.02;;;;;;;17.25;69.77;100468.33;1631332;86;21125;-83
2021/05/15 11:03:07;;;;;;;2.17;1.25;;;;;;;17.82;69.23;100474.05;1622788;88;21813;-86
2021/05/15 11:05:44;;;;;;;1.62;1.40;;;;;;;18.20;68.44;100470.61;1631263;86;21148;-87
2021/05/15 11:08:23;;;;;;;2.70;2.20;;;;;;;18.55;67.49;100476.86;1622846;88;21162;-85
2021/05/15 11:10:51;;;;;;;1.75;1.22;;;;;;;18.50;66.12;100473.83;1631669;87;21156;-88
2021/05/15 11:13:18;;;;;;;1.70;1.42;;;;;;;18.24;65.52;100474.57;1622807;88;21092;-84
2021/05/15 11:15:46;;;;;;;1.45;1.35;;;;;;;18.02;65.63;100469.03;1631639;87;21721;-85
2021/05/15 11:18:13;;;;;;;2.33;1.55;;;;;;;17.80;65.53;100471.86;1622673;88;21072;-84